EZY51JQ EGKK-LSGG
Flight info
| Callsign | EZY51JQ |
|---|---|
| Flight time | 1h 10m |
| Altitude | 37000 |
| Route | SFD Y47 BENBO UL612 RESMI UM975 PEKIM DCT PILUL DCT PIMUP/N0418F270 DCT PIXIS DCT PIBAT/N0394F230 DCT LUSAR |
| Aircraft | A320/M-SDE3FGHIRWY/LB1 |
Departure
| Time | 2026-04-14 03:40 |
|---|---|
| Airport | London Gatwick Airport (EGKK) |
Arrival
| Time | 2026-04-14 04:51 |
|---|---|
| Airport | Geneva International Airport (LSGG) |
| Time | Latitude | Longitude | Altitude | Speed | Heading |
|---|---|---|---|---|---|
| 2026-04-14 03:21 | 51.15833 | -0.17634 | 212 ft | 0 kts | 347° |
| 2026-04-14 03:32 | 51.15820 | -0.17629 | 194 ft | 4 kts | 349° |
| 2026-04-14 03:33 | 51.15793 | -0.17621 | 221 ft | 4 kts | 341° |
| 2026-04-14 03:33 | 51.15769 | -0.17607 | 212 ft | 4 kts | 0° |
| 2026-04-14 03:33 | 51.15748 | -0.17620 | 216 ft | 4 kts | 63° |
| 2026-04-14 03:33 | 51.15743 | -0.17642 | 211 ft | 4 kts | 84° |
| 2026-04-14 03:34 | 51.15743 | -0.17652 | 208 ft | 0 kts | 78° |
| 2026-04-14 03:36 | 51.15746 | -0.17622 | 216 ft | 4 kts | 78° |
| 2026-04-14 03:37 | 51.15751 | -0.17585 | 215 ft | 3 kts | 79° |
| 2026-04-14 03:37 | 51.15754 | -0.17556 | 204 ft | 2 kts | 80° |
| 2026-04-14 03:37 | 51.15756 | -0.17530 | 207 ft | 4 kts | 86° |
| 2026-04-14 03:37 | 51.15698 | -0.17489 | 211 ft | 15 kts | 169° |
| 2026-04-14 03:38 | 51.15587 | -0.17452 | 207 ft | 17 kts | 167° |
| 2026-04-14 03:38 | 51.15461 | -0.17409 | 204 ft | 20 kts | 167° |
| 2026-04-14 03:38 | 51.15321 | -0.17359 | 204 ft | 22 kts | 167° |
| 2026-04-14 03:38 | 51.15198 | -0.17261 | 207 ft | 20 kts | 143° |
| 2026-04-14 03:39 | 51.15121 | -0.17144 | 204 ft | 11 kts | 151° |
| 2026-04-14 03:39 | 51.15070 | -0.17181 | 204 ft | 9 kts | 252° |
| 2026-04-14 03:39 | 51.15064 | -0.17219 | 205 ft | 0 kts | 259° |
| 2026-04-14 03:40 | 51.15038 | -0.17417 | 209 ft | 55 kts | 258° |
| 2026-04-14 03:40 | 51.14901 | -0.18405 | 208 ft | 124 kts | 258° |
| 2026-04-14 03:40 | 51.14682 | -0.20024 | 322 ft | 165 kts | 258° |
| 2026-04-14 03:40 | 51.14451 | -0.21797 | 1097 ft | 164 kts | 256° |
| 2026-04-14 03:41 | 51.14204 | -0.23600 | 1745 ft | 175 kts | 253° |
| 2026-04-14 03:41 | 51.13917 | -0.25587 | 2128 ft | 197 kts | 253° |
| 2026-04-14 03:41 | 51.13593 | -0.27845 | 2640 ft | 216 kts | 254° |
| 2026-04-14 03:41 | 51.13261 | -0.30204 | 3551 ft | 222 kts | 255° |
| 2026-04-14 03:42 | 51.12922 | -0.32623 | 3900 ft | 224 kts | 255° |
| 2026-04-14 03:42 | 51.12586 | -0.35038 | 3995 ft | 223 kts | 255° |
| 2026-04-14 03:42 | 51.12252 | -0.37449 | 4006 ft | 223 kts | 255° |
| 2026-04-14 03:42 | 51.11916 | -0.39861 | 4004 ft | 223 kts | 255° |
| 2026-04-14 03:43 | 51.11290 | -0.42064 | 4011 ft | 219 kts | 225° |
| 2026-04-14 03:43 | 51.09985 | -0.43196 | 4008 ft | 218 kts | 188° |
| 2026-04-14 03:43 | 51.08490 | -0.42829 | 4010 ft | 222 kts | 162° |
| 2026-04-14 03:43 | 51.07018 | -0.42074 | 4000 ft | 223 kts | 161° |
| 2026-04-14 03:44 | 51.05633 | -0.40914 | 4012 ft | 238 kts | 144° |
| 2026-04-14 03:44 | 51.04394 | -0.38985 | 4007 ft | 256 kts | 135° |
| 2026-04-14 03:44 | 51.03200 | -0.36869 | 4005 ft | 259 kts | 134° |
| 2026-04-14 03:44 | 51.01996 | -0.34674 | 4622 ft | 266 kts | 133° |
| 2026-04-14 03:45 | 51.00780 | -0.32443 | 5536 ft | 270 kts | 133° |
| 2026-04-14 03:45 | 50.99546 | -0.30180 | 5871 ft | 271 kts | 133° |
| 2026-04-14 03:45 | 50.98307 | -0.27915 | 5990 ft | 271 kts | 133° |
| 2026-04-14 03:45 | 50.97080 | -0.25680 | 6005 ft | 271 kts | 133° |
| 2026-04-14 03:46 | 50.95840 | -0.23427 | 6008 ft | 271 kts | 133° |
| 2026-04-14 03:46 | 50.94597 | -0.21178 | 6007 ft | 271 kts | 133° |
| 2026-04-14 03:46 | 50.93351 | -0.18930 | 6005 ft | 271 kts | 133° |
| 2026-04-14 03:46 | 50.92107 | -0.16682 | 6005 ft | 271 kts | 133° |
| 2026-04-14 03:47 | 50.90865 | -0.14437 | 6000 ft | 271 kts | 133° |
| 2026-04-14 03:47 | 50.89619 | -0.12182 | 6002 ft | 271 kts | 133° |
| 2026-04-14 03:47 | 50.88377 | -0.09936 | 6000 ft | 271 kts | 133° |
| 2026-04-14 03:47 | 50.87133 | -0.07692 | 5998 ft | 271 kts | 133° |
| 2026-04-14 03:48 | 50.85888 | -0.05445 | 6005 ft | 271 kts | 133° |
| 2026-04-14 03:48 | 50.84644 | -0.03202 | 6002 ft | 271 kts | 133° |
| 2026-04-14 03:48 | 50.83397 | -0.00964 | 6000 ft | 271 kts | 133° |
| 2026-04-14 03:48 | 50.82148 | 0.01276 | 5997 ft | 271 kts | 133° |
| 2026-04-14 03:49 | 50.80900 | 0.03515 | 6001 ft | 272 kts | 133° |
| 2026-04-14 03:49 | 50.79652 | 0.05754 | 6002 ft | 272 kts | 133° |
| 2026-04-14 03:49 | 50.78401 | 0.08002 | 6002 ft | 272 kts | 134° |
| 2026-04-14 03:49 | 50.76976 | 0.09920 | 6001 ft | 269 kts | 151° |
| 2026-04-14 03:50 | 50.75252 | 0.11006 | 6007 ft | 267 kts | 170° |
| 2026-04-14 03:50 | 50.73389 | 0.11117 | 6669 ft | 269 kts | 189° |
| 2026-04-14 03:50 | 50.71552 | 0.10519 | 7693 ft | 271 kts | 195° |
| 2026-04-14 03:50 | 50.69698 | 0.09856 | 8627 ft | 276 kts | 195° |
| 2026-04-14 03:51 | 50.67811 | 0.09178 | 9540 ft | 281 kts | 196° |
| 2026-04-14 03:51 | 50.65881 | 0.08483 | 10362 ft | 290 kts | 196° |
| 2026-04-14 03:51 | 50.63833 | 0.07738 | 10710 ft | 314 kts | 196° |
| 2026-04-14 03:51 | 50.61662 | 0.06946 | 11073 ft | 334 kts | 196° |
| 2026-04-14 03:52 | 50.59363 | 0.06113 | 11766 ft | 342 kts | 195° |
| 2026-04-14 03:52 | 50.57024 | 0.05274 | 12558 ft | 347 kts | 195° |
| 2026-04-14 03:52 | 50.54652 | 0.04424 | 13360 ft | 352 kts | 195° |
| 2026-04-14 03:52 | 50.52250 | 0.03566 | 14111 ft | 356 kts | 195° |
| 2026-04-14 03:53 | 50.49819 | 0.02704 | 14799 ft | 361 kts | 194° |
| 2026-04-14 03:53 | 50.47296 | 0.02319 | 15480 ft | 369 kts | 182° |
| 2026-04-14 03:53 | 50.44723 | 0.02805 | 16169 ft | 378 kts | 169° |
| 2026-04-14 03:53 | 50.42223 | 0.04194 | 16843 ft | 386 kts | 156° |
| 2026-04-14 03:54 | 50.39912 | 0.06396 | 17480 ft | 392 kts | 148° |
| 2026-04-14 03:54 | 50.37622 | 0.08780 | 18134 ft | 397 kts | 148° |
| 2026-04-14 03:54 | 50.35310 | 0.11183 | 18726 ft | 401 kts | 148° |
| 2026-04-14 03:54 | 50.32972 | 0.13603 | 19285 ft | 405 kts | 148° |
| 2026-04-14 03:55 | 50.30599 | 0.16049 | 19819 ft | 410 kts | 149° |
| 2026-04-14 03:55 | 50.28206 | 0.18510 | 20370 ft | 414 kts | 149° |
| 2026-04-14 03:55 | 50.25810 | 0.20971 | 20895 ft | 418 kts | 149° |
| 2026-04-14 03:55 | 50.23366 | 0.23478 | 21425 ft | 422 kts | 149° |
| 2026-04-14 03:56 | 50.20898 | 0.26008 | 21943 ft | 426 kts | 149° |
| 2026-04-14 03:56 | 50.18401 | 0.28570 | 22433 ft | 431 kts | 149° |
| 2026-04-14 03:56 | 50.15886 | 0.31154 | 22932 ft | 435 kts | 149° |
| 2026-04-14 03:56 | 50.13348 | 0.33761 | 23423 ft | 439 kts | 149° |
| 2026-04-14 03:57 | 50.10786 | 0.36389 | 23871 ft | 443 kts | 149° |
| 2026-04-14 03:57 | 50.08196 | 0.39046 | 24292 ft | 447 kts | 148° |
| 2026-04-14 03:57 | 50.05587 | 0.41719 | 24668 ft | 451 kts | 148° |
| 2026-04-14 03:57 | 50.02954 | 0.44417 | 25051 ft | 455 kts | 148° |
| 2026-04-14 03:58 | 50.00298 | 0.47133 | 25471 ft | 457 kts | 148° |
| 2026-04-14 03:58 | 49.97631 | 0.49853 | 25900 ft | 460 kts | 148° |
| 2026-04-14 03:58 | 49.94947 | 0.52581 | 26280 ft | 463 kts | 148° |
| 2026-04-14 03:58 | 49.92236 | 0.55332 | 26660 ft | 466 kts | 148° |
| 2026-04-14 03:59 | 49.89543 | 0.58055 | 27029 ft | 469 kts | 148° |
| 2026-04-14 03:59 | 49.86798 | 0.60829 | 27403 ft | 473 kts | 147° |
| 2026-04-14 03:59 | 49.84143 | 0.63882 | 27756 ft | 477 kts | 141° |
| 2026-04-14 03:59 | 49.81567 | 0.67149 | 28127 ft | 480 kts | 141° |
| 2026-04-14 04:00 | 49.78976 | 0.70434 | 28490 ft | 483 kts | 141° |
| 2026-04-14 04:00 | 49.76359 | 0.73735 | 28844 ft | 487 kts | 141° |
| 2026-04-14 04:00 | 49.73720 | 0.77049 | 29163 ft | 490 kts | 141° |
| 2026-04-14 04:00 | 49.71065 | 0.80374 | 29506 ft | 493 kts | 141° |
| 2026-04-14 04:01 | 49.68390 | 0.83714 | 29826 ft | 496 kts | 141° |
| 2026-04-14 04:01 | 49.65702 | 0.87071 | 30149 ft | 499 kts | 141° |
| 2026-04-14 04:01 | 49.62998 | 0.90449 | 30444 ft | 501 kts | 141° |
| 2026-04-14 04:01 | 49.60287 | 0.93830 | 30811 ft | 501 kts | 141° |
| 2026-04-14 04:02 | 49.57576 | 0.97206 | 31111 ft | 502 kts | 141° |
| 2026-04-14 04:02 | 49.54861 | 1.00585 | 31469 ft | 502 kts | 141° |
| 2026-04-14 04:02 | 49.52144 | 1.03962 | 31839 ft | 501 kts | 141° |
| 2026-04-14 04:02 | 49.49429 | 1.07328 | 32189 ft | 502 kts | 141° |
| 2026-04-14 04:03 | 49.46709 | 1.10695 | 32532 ft | 502 kts | 141° |
| 2026-04-14 04:03 | 49.43989 | 1.14053 | 32893 ft | 502 kts | 141° |
| 2026-04-14 04:03 | 49.41263 | 1.17410 | 33242 ft | 502 kts | 141° |
| 2026-04-14 04:03 | 49.38531 | 1.20771 | 33601 ft | 502 kts | 141° |
| 2026-04-14 04:04 | 49.35805 | 1.24123 | 33955 ft | 502 kts | 141° |
| 2026-04-14 04:04 | 49.33082 | 1.27473 | 34285 ft | 502 kts | 141° |
| 2026-04-14 04:04 | 49.30355 | 1.30823 | 34607 ft | 502 kts | 141° |
| 2026-04-14 04:04 | 49.27630 | 1.34166 | 34961 ft | 501 kts | 141° |
| 2026-04-14 04:05 | 49.24908 | 1.37493 | 35332 ft | 499 kts | 141° |
| 2026-04-14 04:05 | 49.22192 | 1.40809 | 35655 ft | 498 kts | 141° |
| 2026-04-14 04:05 | 49.19484 | 1.44114 | 35988 ft | 498 kts | 141° |
| 2026-04-14 04:05 | 49.16815 | 1.47365 | 36280 ft | 497 kts | 141° |
| 2026-04-14 04:06 | 49.14109 | 1.50653 | 36568 ft | 497 kts | 141° |
| 2026-04-14 04:06 | 49.11407 | 1.53934 | 36859 ft | 496 kts | 141° |
| 2026-04-14 04:06 | 49.08702 | 1.57213 | 37084 ft | 497 kts | 141° |
| 2026-04-14 04:07 | 49.03296 | 1.63751 | 37143 ft | 496 kts | 141° |
| 2026-04-14 04:07 | 48.97889 | 1.70270 | 37143 ft | 495 kts | 141° |
| 2026-04-14 04:08 | 48.92477 | 1.76785 | 37159 ft | 495 kts | 141° |
| 2026-04-14 04:08 | 48.87089 | 1.83265 | 37147 ft | 494 kts | 141° |
| 2026-04-14 04:09 | 48.81687 | 1.89725 | 37142 ft | 493 kts | 141° |
| 2026-04-14 04:09 | 48.76291 | 1.96161 | 37142 ft | 494 kts | 141° |
| 2026-04-14 04:10 | 48.70892 | 2.02586 | 37143 ft | 494 kts | 141° |
| 2026-04-14 04:10 | 48.65490 | 2.09005 | 37144 ft | 494 kts | 141° |
| 2026-04-14 04:11 | 48.60080 | 2.15408 | 37140 ft | 494 kts | 141° |
| 2026-04-14 04:11 | 48.55284 | 2.22671 | 37156 ft | 491 kts | 124° |
| 2026-04-14 04:12 | 48.51394 | 2.31121 | 37159 ft | 490 kts | 123° |
| 2026-04-14 04:12 | 48.47509 | 2.39574 | 37158 ft | 490 kts | 123° |
| 2026-04-14 04:13 | 48.43625 | 2.48015 | 37154 ft | 490 kts | 123° |
| 2026-04-14 04:13 | 48.39744 | 2.56454 | 37145 ft | 490 kts | 123° |
| 2026-04-14 04:14 | 48.35849 | 2.64845 | 37166 ft | 489 kts | 123° |
| 2026-04-14 04:14 | 48.31950 | 2.73198 | 37169 ft | 487 kts | 123° |
| 2026-04-14 04:15 | 48.27924 | 2.81395 | 37165 ft | 488 kts | 131° |
| 2026-04-14 04:15 | 48.22816 | 2.88078 | 37162 ft | 488 kts | 142° |
| 2026-04-14 04:16 | 48.17431 | 2.94294 | 37140 ft | 488 kts | 142° |
| 2026-04-14 04:16 | 48.12054 | 3.00499 | 37164 ft | 488 kts | 142° |
| 2026-04-14 04:17 | 48.06423 | 3.05987 | 37168 ft | 486 kts | 156° |
| 2026-04-14 04:17 | 48.00213 | 3.09913 | 37165 ft | 484 kts | 158° |
| 2026-04-14 04:18 | 47.94007 | 3.13830 | 37155 ft | 484 kts | 158° |
| 2026-04-14 04:18 | 47.87805 | 3.17734 | 37154 ft | 484 kts | 158° |
| 2026-04-14 04:19 | 47.81586 | 3.21617 | 37150 ft | 484 kts | 158° |
| 2026-04-14 04:19 | 47.75424 | 3.25462 | 37143 ft | 483 kts | 158° |
| 2026-04-14 04:20 | 47.69225 | 3.29328 | 37143 ft | 484 kts | 158° |
| 2026-04-14 04:20 | 47.63009 | 3.33190 | 37147 ft | 484 kts | 158° |
| 2026-04-14 04:21 | 47.56805 | 3.37035 | 37171 ft | 483 kts | 158° |
| 2026-04-14 04:21 | 47.51615 | 3.40252 | 37163 ft | 482 kts | 157° |
| 2026-04-14 04:22 | 47.45433 | 3.44070 | 37164 ft | 481 kts | 158° |
| 2026-04-14 04:22 | 47.39287 | 3.47827 | 37162 ft | 481 kts | 158° |
| 2026-04-14 04:23 | 47.33110 | 3.51611 | 37153 ft | 480 kts | 157° |
| 2026-04-14 04:23 | 47.26937 | 3.55405 | 37155 ft | 480 kts | 157° |
| 2026-04-14 04:24 | 47.20762 | 3.59185 | 37154 ft | 480 kts | 158° |
| 2026-04-14 04:24 | 47.14581 | 3.62944 | 37154 ft | 480 kts | 158° |
| 2026-04-14 04:25 | 47.08400 | 3.66690 | 37157 ft | 480 kts | 158° |
| 2026-04-14 04:25 | 47.02228 | 3.70422 | 37155 ft | 480 kts | 157° |
| 2026-04-14 04:26 | 46.96537 | 3.75421 | 37157 ft | 477 kts | 137° |
| 2026-04-14 04:26 | 46.92358 | 3.82768 | 37149 ft | 472 kts | 117° |
| 2026-04-14 04:27 | 46.89755 | 3.91521 | 37154 ft | 469 kts | 109° |
| 2026-04-14 04:27 | 46.87413 | 4.00410 | 37155 ft | 469 kts | 109° |
| 2026-04-14 04:28 | 46.85052 | 4.09288 | 37143 ft | 469 kts | 109° |
| 2026-04-14 04:28 | 46.82680 | 4.18157 | 37142 ft | 468 kts | 109° |
| 2026-04-14 04:29 | 46.80450 | 4.27093 | 37148 ft | 466 kts | 101° |
| 2026-04-14 04:29 | 46.79092 | 4.36312 | 37148 ft | 465 kts | 99° |
| 2026-04-14 04:30 | 46.77744 | 4.45546 | 37143 ft | 465 kts | 99° |
| 2026-04-14 04:30 | 46.76382 | 4.54776 | 37152 ft | 465 kts | 100° |
| 2026-04-14 04:31 | 46.75009 | 4.63999 | 37149 ft | 465 kts | 100° |
| 2026-04-14 04:31 | 46.72968 | 4.77783 | 36677 ft | 468 kts | 100° |
| 2026-04-14 04:32 | 46.72272 | 4.82480 | 35485 ft | 479 kts | 100° |
| 2026-04-14 04:32 | 46.71568 | 4.87247 | 34668 ft | 481 kts | 100° |
| 2026-04-14 04:32 | 46.70854 | 4.92009 | 33909 ft | 480 kts | 101° |
| 2026-04-14 04:32 | 46.70135 | 4.96762 | 32969 ft | 481 kts | 101° |
| 2026-04-14 04:33 | 46.69409 | 5.01523 | 31985 ft | 482 kts | 102° |
| 2026-04-14 04:33 | 46.68680 | 5.06283 | 31126 ft | 481 kts | 102° |
| 2026-04-14 04:33 | 46.67954 | 5.11025 | 30321 ft | 478 kts | 102° |
| 2026-04-14 04:33 | 46.67235 | 5.15717 | 29160 ft | 471 kts | 102° |
| 2026-04-14 04:34 | 46.66525 | 5.20347 | 28508 ft | 464 kts | 102° |
| 2026-04-14 04:34 | 46.65831 | 5.24894 | 27848 ft | 456 kts | 103° |
| 2026-04-14 04:34 | 46.65149 | 5.29376 | 27188 ft | 450 kts | 104° |
| 2026-04-14 04:34 | 46.64487 | 5.33797 | 26539 ft | 445 kts | 104° |
| 2026-04-14 04:35 | 46.63834 | 5.38167 | 25908 ft | 440 kts | 104° |
| 2026-04-14 04:35 | 46.63182 | 5.42492 | 25283 ft | 435 kts | 104° |
| 2026-04-14 04:35 | 46.62533 | 5.46764 | 24668 ft | 430 kts | 104° |
| 2026-04-14 04:35 | 46.61885 | 5.50987 | 24069 ft | 426 kts | 104° |
| 2026-04-14 04:36 | 46.61236 | 5.55163 | 23451 ft | 421 kts | 104° |
| 2026-04-14 04:36 | 46.60590 | 5.59282 | 22886 ft | 414 kts | 104° |
| 2026-04-14 04:36 | 46.59953 | 5.63335 | 22357 ft | 408 kts | 104° |
| 2026-04-14 04:36 | 46.59333 | 5.67273 | 21843 ft | 402 kts | 104° |
| 2026-04-14 04:37 | 46.58712 | 5.71207 | 21358 ft | 396 kts | 104° |
| 2026-04-14 04:37 | 46.58082 | 5.75074 | 20863 ft | 390 kts | 107° |
| 2026-04-14 04:37 | 46.57095 | 5.78701 | 20372 ft | 384 kts | 119° |
| 2026-04-14 04:37 | 46.55651 | 5.81922 | 19861 ft | 378 kts | 131° |
| 2026-04-14 04:38 | 46.53858 | 5.84688 | 19350 ft | 377 kts | 136° |
| 2026-04-14 04:38 | 46.52047 | 5.87436 | 18846 ft | 376 kts | 135° |
| 2026-04-14 04:38 | 46.50257 | 5.90183 | 18362 ft | 373 kts | 135° |
| 2026-04-14 04:38 | 46.48417 | 5.92820 | 17746 ft | 369 kts | 142° |
| 2026-04-14 04:39 | 46.46265 | 5.94843 | 16389 ft | 372 kts | 152° |
| 2026-04-14 04:39 | 46.43997 | 5.96689 | 15833 ft | 370 kts | 152° |
| 2026-04-14 04:39 | 46.41765 | 5.98464 | 15582 ft | 360 kts | 153° |
| 2026-04-14 04:39 | 46.39635 | 6.00232 | 15428 ft | 347 kts | 147° |
| 2026-04-14 04:40 | 46.37993 | 6.02715 | 14743 ft | 341 kts | 120° |
| 2026-04-14 04:40 | 46.37282 | 6.05932 | 14043 ft | 335 kts | 94° |
| 2026-04-14 04:40 | 46.37555 | 6.09223 | 13285 ft | 328 kts | 70° |
| 2026-04-14 04:41 | 46.40235 | 6.14345 | 11784 ft | 317 kts | 45° |
| 2026-04-14 04:41 | 46.41777 | 6.16600 | 11059 ft | 312 kts | 45° |
| 2026-04-14 04:41 | 46.43275 | 6.18792 | 10357 ft | 308 kts | 44° |
| 2026-04-14 04:41 | 46.44772 | 6.20985 | 9621 ft | 304 kts | 45° |
| 2026-04-14 04:42 | 46.46243 | 6.23153 | 8852 ft | 299 kts | 45° |
| 2026-04-14 04:42 | 46.47686 | 6.25285 | 8101 ft | 293 kts | 45° |
| 2026-04-14 04:42 | 46.49102 | 6.27372 | 7389 ft | 286 kts | 45° |
| 2026-04-14 04:42 | 46.50455 | 6.29359 | 7076 ft | 266 kts | 46° |
| 2026-04-14 04:43 | 46.51510 | 6.31479 | 6964 ft | 258 kts | 65° |
| 2026-04-14 04:43 | 46.51925 | 6.34014 | 6984 ft | 261 kts | 87° |
| 2026-04-14 04:43 | 46.51603 | 6.36573 | 6980 ft | 253 kts | 111° |
| 2026-04-14 04:43 | 46.50665 | 6.38634 | 6978 ft | 239 kts | 128° |
| 2026-04-14 04:44 | 46.49593 | 6.40361 | 6969 ft | 223 kts | 127° |
| 2026-04-14 04:44 | 46.48509 | 6.42002 | 6978 ft | 230 kts | 139° |
| 2026-04-14 04:44 | 46.47014 | 6.42898 | 6983 ft | 240 kts | 172° |
| 2026-04-14 04:44 | 46.45388 | 6.42483 | 6973 ft | 246 kts | 208° |
| 2026-04-14 04:45 | 46.44061 | 6.40932 | 6788 ft | 245 kts | 226° |
| 2026-04-14 04:45 | 46.42890 | 6.39126 | 6493 ft | 246 kts | 227° |
| 2026-04-14 04:45 | 46.41711 | 6.37329 | 6158 ft | 247 kts | 226° |
| 2026-04-14 04:45 | 46.40509 | 6.35545 | 5808 ft | 248 kts | 226° |
| 2026-04-14 04:46 | 46.39314 | 6.33777 | 5471 ft | 240 kts | 226° |
| 2026-04-14 04:46 | 46.38174 | 6.32087 | 5163 ft | 230 kts | 226° |
| 2026-04-14 04:46 | 46.37083 | 6.30472 | 4879 ft | 217 kts | 226° |
| 2026-04-14 04:46 | 46.36060 | 6.28959 | 4585 ft | 202 kts | 226° |
| 2026-04-14 04:47 | 46.35114 | 6.27559 | 4295 ft | 188 kts | 226° |
| 2026-04-14 04:47 | 46.34229 | 6.26253 | 4064 ft | 173 kts | 226° |
| 2026-04-14 04:47 | 46.33422 | 6.25061 | 3820 ft | 160 kts | 226° |
| 2026-04-14 04:47 | 46.32657 | 6.23931 | 3606 ft | 155 kts | 227° |
| 2026-04-14 04:48 | 46.31912 | 6.22833 | 3400 ft | 151 kts | 227° |
| 2026-04-14 04:48 | 46.31178 | 6.21749 | 3195 ft | 150 kts | 227° |
| 2026-04-14 04:48 | 46.30449 | 6.20675 | 2985 ft | 149 kts | 227° |
| 2026-04-14 04:48 | 46.29729 | 6.19614 | 2767 ft | 147 kts | 227° |
| 2026-04-14 04:49 | 46.29018 | 6.18566 | 2549 ft | 146 kts | 227° |
| 2026-04-14 04:49 | 46.28308 | 6.17522 | 2351 ft | 144 kts | 227° |
| 2026-04-14 04:49 | 46.27617 | 6.16504 | 2143 ft | 140 kts | 226° |
| 2026-04-14 04:49 | 46.26949 | 6.15523 | 1961 ft | 137 kts | 226° |
| 2026-04-14 04:50 | 46.26286 | 6.14532 | 1747 ft | 137 kts | 227° |
| 2026-04-14 04:50 | 46.25615 | 6.13552 | 1574 ft | 137 kts | 226° |
| 2026-04-14 04:50 | 46.24941 | 6.12565 | 1414 ft | 138 kts | 226° |
| 2026-04-14 04:50 | 46.24330 | 6.11661 | 1373 ft | 104 kts | 225° |
| 2026-04-14 04:51 | 46.23944 | 6.11097 | 1377 ft | 54 kts | 225° |
| 2026-04-14 04:51 | 46.23789 | 6.10875 | 1380 ft | 18 kts | 220° |
| 2026-04-14 04:51 | 46.23687 | 6.10776 | 1379 ft | 17 kts | 207° |
| 2026-04-14 04:51 | 46.23581 | 6.10722 | 1384 ft | 15 kts | 197° |
| 2026-04-14 04:52 | 46.23497 | 6.10689 | 1385 ft | 11 kts | 195° |
| 2026-04-14 04:52 | 46.23412 | 6.10643 | 1397 ft | 16 kts | 216° |
| 2026-04-14 04:52 | 46.23311 | 6.10513 | 1400 ft | 23 kts | 229° |
| 2026-04-14 04:52 | 46.23210 | 6.10361 | 1399 ft | 15 kts | 222° |
| 2026-04-14 04:53 | 46.23132 | 6.10396 | 1398 ft | 13 kts | 134° |
| 2026-04-14 04:53 | 46.23072 | 6.10479 | 1398 ft | 11 kts | 147° |
| 2026-04-14 04:53 | 46.23021 | 6.10453 | 1399 ft | 4 kts | 184° |
| 2026-04-14 04:53 | 46.22998 | 6.10474 | 1400 ft | 4 kts | 130° |
| 2026-04-14 04:54 | 46.22985 | 6.10498 | 1406 ft | 3 kts | 133° |
| 2026-04-14 04:54 | 46.22980 | 6.10505 | 1401 ft | 0 kts | 135° |